This is the latest recevied weather packets stored in our database for station/object OM2RC-6. If no packets are shown the sender has not sent any weather packets the latest 10 day(s).
| Time | Temp. | Humidity | Pressure | Rain* | Wind** | Luminosity | Snow |
|---|---|---|---|---|---|---|---|
| 1777794315 | 17.22° C | 53% | 1021.4 hPa | - | - | - | - |
| 1777794013 | 17.22° C | 54% | 1021.3 hPa | - | - | - | - |
| 1777793701 | 16.67° C | 55% | 1021.4 hPa | - | - | - | - |
| 1777793399 | 17.22° C | 54% | 1021 hPa | - | - | - | - |
| 1777793098 | 16.67° C | 57% | 1021.3 hPa | - | - | - | - |
| 1777792796 | 16.67° C | 57% | 1021.3 hPa | - | - | - | - |
| 1777792492 | 16.67° C | 57% | 1021.3 hPa | - | - | - | - |
| 1777792192 | 16.11° C | 57% | 1021.3 hPa | - | - | - | - |
| 1777791589 | 16.11° C | 59% | 1021.2 hPa | - | - | - | - |
| 1777791289 | 15.56° C | 59% | 1021.2 hPa | - | - | - | - |
| 1777790987 | 15.56° C | 60% | 1021.1 hPa | - | - | - | - |
| 1777790385 | 15° C | 60% | 1021.1 hPa | - | - | - | - |
| 1777790084 | 15° C | 61% | 1021.1 hPa | - | - | - | - |
| 1777789783 | 15° C | 61% | 1021.1 hPa | - | - | - | - |
| 1777789482 | 15° C | 62% | 1021 hPa | - | - | - | - |
| 1777789180 | 15° C | 63% | 1021.2 hPa | - | - | - | - |
| 1777788578 | 14.44° C | 63% | 1021.2 hPa | - | - | - | - |
| 1777788277 | 14.44° C | 63% | 1021.2 hPa | - | - | - | - |
| 1777787976 | 14.44° C | 63% | 1021.1 hPa | - | - | - | - |
| 1777787674 | 14.44° C | 63% | 1021 hPa | - | - | - | - |
| 1777787373 | 14.44° C | 63% | 1021 hPa | - | - | - | - |
| 1777787072 | 14.44° C | 64% | 1021 hPa | - | - | - | - |
| 1777786468 | 13.89° C | 64% | 1021 hPa | - | - | - | - |
| 1777786167 | 13.89° C | 65% | 1020.9 hPa | - | - | - | - |
| 1777785566 | 13.89° C | 67% | 1021 hPa | - | - | - | - |
* Rain since midnight (hover to see other rain measurements)
** Current wind speed in m/s (hover to see current wind gust speed)